sensor_id;sensor_type;location;lat;lon;timestamp;pressure;altitude;pressure_sealevel;temperature;humidity
56681;BME280;42558;52.388;13.390;2023-09-18T00:01:27;100820.77;;;17.45;97.48
56681;BME280;42558;52.388;13.390;2023-09-18T00:03:56;100817.70;;;17.49;96.96
56681;BME280;42558;52.388;13.390;2023-09-18T00:06:24;100817.80;;;17.42;97.27
56681;BME280;42558;52.388;13.390;2023-09-18T00:08:53;100815.69;;;17.41;97.35
56681;BME280;42558;52.388;13.390;2023-09-18T00:11:21;100813.23;;;17.39;97.42
56681;BME280;42558;52.388;13.390;2023-09-18T00:13:50;100811.64;;;17.38;97.48
56681;BME280;42558;52.388;13.390;2023-09-18T00:16:18;100813.70;;;17.43;97.21
56681;BME280;42558;52.388;13.390;2023-09-18T00:18:46;100807.02;;;17.38;97.32
56681;BME280;42558;52.388;13.390;2023-09-18T00:21:15;100809.94;;;17.33;97.95
56681;BME280;42558;52.388;13.390;2023-09-18T00:23:43;100809.08;;;17.30;98.02
56681;BME280;42558;52.388;13.390;2023-09-18T00:26:12;100807.33;;;17.28;98.21
56681;BME280;42558;52.388;13.390;2023-09-18T00:28:40;100802.30;;;17.32;97.92
56681;BME280;42558;52.388;13.390;2023-09-18T00:31:08;100801.38;;;17.35;97.62
56681;BME280;42558;52.388;13.390;2023-09-18T00:33:37;100799.35;;;17.27;97.82
56681;BME280;42558;52.388;13.390;2023-09-18T00:36:05;100804.38;;;17.22;98.45
56681;BME280;42558;52.388;13.390;2023-09-18T00:38:34;100799.46;;;17.17;99.15
56681;BME280;42558;52.388;13.390;2023-09-18T00:41:02;100796.45;;;17.18;99.18
56681;BME280;42558;52.388;13.390;2023-09-18T00:43:30;100792.55;;;17.16;99.21
56681;BME280;42558;52.388;13.390;2023-09-18T00:45:59;100785.26;;;17.16;99.20
56681;BME280;42558;52.388;13.390;2023-09-18T00:48:27;100785.33;;;17.11;99.44
56681;BME280;42558;52.388;13.390;2023-09-18T00:50:56;100790.92;;;17.05;99.81
56681;BME280;42558;52.388;13.390;2023-09-18T00:53:26;100790.48;;;16.97;100.00
56681;BME280;42558;52.388;13.390;2023-09-18T00:55:58;100782.51;;;16.96;100.00
56681;BME280;42558;52.388;13.390;2023-09-18T00:58:27;100782.99;;;17.00;100.00
56681;BME280;42558;52.388;13.390;2023-09-18T01:00:56;100774.45;;;17.01;99.93
56681;BME280;42558;52.388;13.390;2023-09-18T01:03:24;100770.91;;;16.99;99.96
56681;BME280;42558;52.388;13.390;2023-09-18T01:05:54;100770.05;;;16.97;100.00
56681;BME280;42558;52.388;13.390;2023-09-18T01:08:24;100773.77;;;16.99;99.95
56681;BME280;42558;52.388;13.390;2023-09-18T01:14:09;100773.21;;;16.86;100.00
56681;BME280;42558;52.388;13.390;2023-09-18T01:16:53;100775.06;;;16.94;100.00
56681;BME280;42558;52.388;13.390;2023-09-18T01:19:44;100772.75;;;16.96;99.46
56681;BME280;42558;52.388;13.390;2023-09-18T01:22:18;100772.83;;;16.90;99.90
56681;BME280;42558;52.388;13.390;2023-09-18T01:24:48;100768.72;;;16.90;100.00
56681;BME280;42558;52.388;13.390;2023-09-18T01:27:18;100766.16;;;16.96;99.71
56681;BME280;42558;52.388;13.390;2023-09-18T01:29:48;100762.55;;;16.88;99.78
56681;BME280;42558;52.388;13.390;2023-09-18T01:32:21;100756.76;;;16.82;100.00
56681;BME280;42558;52.388;13.390;2023-09-18T01:34:57;100755.71;;;16.80;100.00
56681;BME280;42558;52.388;13.390;2023-09-18T01:37:30;100759.59;;;16.82;100.00
56681;BME280;42558;52.388;13.390;2023-09-18T01:40:04;100758.02;;;16.80;99.99
56681;BME280;42558;52.388;13.390;2023-09-18T01:42:41;100760.81;;;16.83;100.00
56681;BME280;42558;52.388;13.390;2023-09-18T01:45:11;100759.31;;;16.75;99.97
56681;BME280;42558;52.388;13.390;2023-09-18T01:47:41;100761.83;;;16.74;100.00
56681;BME280;42558;52.388;13.390;2023-09-18T01:50:12;100759.23;;;16.66;100.00
56681;BME280;42558;52.388;13.390;2023-09-18T01:52:42;100758.02;;;16.61;100.00
56681;BME280;42558;52.388;13.390;2023-09-18T01:55:11;100752.91;;;16.57;100.00
56681;BME280;42558;52.388;13.390;2023-09-18T01:57:40;100743.80;;;16.63;100.00
56681;BME280;42558;52.388;13.390;2023-09-18T02:00:12;100737.55;;;16.68;100.00
56681;BME280;42558;52.388;13.390;2023-09-18T02:02:43;100730.98;;;16.70;100.00
56681;BME280;42558;52.388;13.390;2023-09-18T02:05:25;100727.35;;;16.57;100.00
56681;BME280;42558;52.388;13.390;2023-09-18T02:07:55;100724.06;;;16.51;100.00
56681;BME280;42558;52.388;13.390;2023-09-18T02:10:26;100719.28;;;16.49;100.00
56681;BME280;42558;52.388;13.390;2023-09-18T02:12:57;100713.09;;;16.47;100.00
56681;BME280;42558;52.388;13.390;2023-09-18T02:15:27;100704.10;;;16.41;100.00
56681;BME280;42558;52.388;13.390;2023-09-18T02:18:02;100700.52;;;16.31;100.00
56681;BME280;42558;52.388;13.390;2023-09-18T02:20:40;100698.60;;;16.26;100.00
56681;BME280;42558;52.388;13.390;2023-09-18T02:23:11;100697.00;;;16.27;100.00
56681;BME280;42558;52.388;13.390;2023-09-18T02:25:41;100694.87;;;16.27;100.00
56681;BME280;42558;52.388;13.390;2023-09-18T02:28:11;100691.98;;;16.31;100.00
56681;BME280;42558;52.388;13.390;2023-09-18T02:30:40;100691.26;;;16.32;100.00
56681;BME280;42558;52.388;13.390;2023-09-18T02:33:10;100687.34;;;16.33;100.00
56681;BME280;42558;52.388;13.390;2023-09-18T02:35:41;100685.62;;;16.29;100.00
56681;BME280;42558;52.388;13.390;2023-09-18T02:38:13;100683.27;;;16.34;100.00
56681;BME280;42558;52.388;13.390;2023-09-18T02:40:42;100681.64;;;16.36;100.00
56681;BME280;42558;52.388;13.390;2023-09-18T02:43:12;100676.66;;;16.37;100.00
56681;BME280;42558;52.388;13.390;2023-09-18T02:45:42;100676.03;;;16.29;100.00
56681;BME280;42558;52.388;13.390;2023-09-18T02:48:12;100672.17;;;16.25;100.00
56681;BME280;42558;52.388;13.390;2023-09-18T02:50:43;100670.27;;;16.21;100.00
56681;BME280;42558;52.388;13.390;2023-09-18T02:53:21;100665.33;;;16.19;100.00
56681;BME280;42558;52.388;13.390;2023-09-18T02:55:54;100658.94;;;16.20;100.00
56681;BME280;42558;52.388;13.390;2023-09-18T02:58:25;100659.84;;;16.18;100.00
56681;BME280;42558;52.388;13.390;2023-09-18T03:00:57;100656.54;;;16.13;100.00
56681;BME280;42558;52.388;13.390;2023-09-18T03:03:33;100653.25;;;16.03;100.00
56681;BME280;42558;52.388;13.390;2023-09-18T03:06:04;100649.90;;;16.02;100.00
56681;BME280;42558;52.388;13.390;2023-09-18T03:08:36;100646.32;;;16.06;100.00
56681;BME280;42558;52.388;13.390;2023-09-18T03:11:13;100640.08;;;16.09;100.00
56681;BME280;42558;52.388;13.390;2023-09-18T03:13:46;100634.19;;;16.13;100.00
56681;BME280;42558;52.388;13.390;2023-09-18T03:16:16;100634.95;;;16.08;100.00
56681;BME280;42558;52.388;13.390;2023-09-18T03:18:46;100637.30;;;16.03;100.00
56681;BME280;42558;52.388;13.390;2023-09-18T03:21:16;100636.30;;;15.98;100.00
56681;BME280;42558;52.388;13.390;2023-09-18T03:23:46;100634.36;;;15.98;100.00
56681;BME280;42558;52.388;13.390;2023-09-18T03:26:16;100634.34;;;15.98;100.00
56681;BME280;42558;52.388;13.390;2023-09-18T03:28:46;100632.76;;;15.96;100.00
56681;BME280;42558;52.388;13.390;2023-09-18T03:31:16;100628.71;;;15.95;100.00
56681;BME280;42558;52.388;13.390;2023-09-18T03:33:46;100631.39;;;15.93;100.00
56681;BME280;42558;52.388;13.390;2023-09-18T03:36:16;100625.19;;;15.91;100.00
56681;BME280;42558;52.388;13.390;2023-09-18T03:38:46;100624.48;;;15.92;100.00
56681;BME280;42558;52.388;13.390;2023-09-18T03:41:16;100621.83;;;15.90;100.00
56681;BME280;42558;52.388;13.390;2023-09-18T03:43:46;100624.66;;;15.91;100.00
56681;BME280;42558;52.388;13.390;2023-09-18T03:46:15;100626.38;;;15.97;100.00
56681;BME280;42558;52.388;13.390;2023-09-18T03:48:45;100628.38;;;15.94;100.00
56681;BME280;42558;52.388;13.390;2023-09-18T03:51:16;100631.39;;;15.91;100.00
56681;BME280;42558;52.388;13.390;2023-09-18T03:53:46;100629.48;;;15.89;100.00
56681;BME280;42558;52.388;13.390;2023-09-18T03:56:17;100629.13;;;15.88;100.00
56681;BME280;42558;52.388;13.390;2023-09-18T03:58:45;100621.30;;;15.92;100.00
56681;BME280;42558;52.388;13.390;2023-09-18T04:01:17;100616.28;;;15.96;100.00
56681;BME280;42558;52.388;13.390;2023-09-18T04:03:45;100612.46;;;15.88;100.00
56681;BME280;42558;52.388;13.390;2023-09-18T04:06:14;100606.52;;;15.80;100.00
56681;BME280;42558;52.388;13.390;2023-09-18T04:08:42;100603.16;;;15.78;100.00
56681;BME280;42558;52.388;13.390;2023-09-18T04:11:11;100595.91;;;15.77;100.00
56681;BME280;42558;52.388;13.390;2023-09-18T04:13:39;100594.47;;;15.80;100.00
56681;BME280;42558;52.388;13.390;2023-09-18T04:16:07;100596.35;;;15.86;100.00
56681;BME280;42558;52.388;13.390;2023-09-18T04:18:36;100594.27;;;15.81;100.00
56681;BME280;42558;52.388;13.390;2023-09-18T04:21:04;100591.27;;;15.80;100.00
56681;BME280;42558;52.388;13.390;2023-09-18T04:23:32;100590.52;;;15.85;100.00
56681;BME280;42558;52.388;13.390;2023-09-18T04:26:01;100589.25;;;15.88;100.00
56681;BME280;42558;52.388;13.390;2023-09-18T04:28:29;100586.98;;;15.84;100.00
56681;BME280;42558;52.388;13.390;2023-09-18T04:30:58;100586.95;;;15.87;100.00
56681;BME280;42558;52.388;13.390;2023-09-18T04:33:26;100586.09;;;15.84;100.00
56681;BME280;42558;52.388;13.390;2023-09-18T04:35:58;100586.14;;;15.79;100.00
56681;BME280;42558;52.388;13.390;2023-09-18T04:38:26;100581.90;;;15.77;100.00
56681;BME280;42558;52.388;13.390;2023-09-18T04:41:01;100578.22;;;15.74;100.00
56681;BME280;42558;52.388;13.390;2023-09-18T04:43:29;100578.91;;;15.75;100.00
56681;BME280;42558;52.388;13.390;2023-09-18T04:46:00;100572.87;;;15.77;100.00
56681;BME280;42558;52.388;13.390;2023-09-18T04:48:28;100570.02;;;15.78;100.00
56681;BME280;42558;52.388;13.390;2023-09-18T04:50:58;100568.80;;;15.76;100.00
56681;BME280;42558;52.388;13.390;2023-09-18T04:53:28;100572.86;;;15.78;100.00
56681;BME280;42558;52.388;13.390;2023-09-18T04:55:57;100570.00;;;15.80;100.00
56681;BME280;42558;52.388;13.390;2023-09-18T04:58:25;100569.31;;;15.79;100.00
56681;BME280;42558;52.388;13.390;2023-09-18T05:00:58;100570.39;;;15.76;100.00
56681;BME280;42558;52.388;13.390;2023-09-18T05:03:29;100572.48;;;15.80;100.00
56681;BME280;42558;52.388;13.390;2023-09-18T05:05:59;100571.05;;;15.80;100.00
56681;BME280;42558;52.388;13.390;2023-09-18T05:08:29;100566.61;;;15.82;100.00
56681;BME280;42558;52.388;13.390;2023-09-18T05:10:59;100566.09;;;15.81;100.00
56681;BME280;42558;52.388;13.390;2023-09-18T05:13:30;100568.35;;;15.85;100.00
56681;BME280;42558;52.388;13.390;2023-09-18T05:16:00;100566.52;;;15.89;100.00
56681;BME280;42558;52.388;13.390;2023-09-18T05:18:30;100561.91;;;15.89;100.00
56681;BME280;42558;52.388;13.390;2023-09-18T05:21:00;100561.16;;;15.94;100.00
56681;BME280;42558;52.388;13.390;2023-09-18T05:23:31;100560.04;;;15.98;100.00
56681;BME280;42558;52.388;13.390;2023-09-18T05:26:01;100555.17;;;16.05;100.00
56681;BME280;42558;52.388;13.390;2023-09-18T05:28:33;100551.56;;;16.12;100.00
56681;BME280;42558;52.388;13.390;2023-09-18T05:31:03;100551.63;;;16.18;100.00
56681;BME280;42558;52.388;13.390;2023-09-18T05:33:33;100554.45;;;16.21;100.00
56681;BME280;42558;52.388;13.390;2023-09-18T05:36:03;100554.58;;;16.24;100.00
56681;BME280;42558;52.388;13.390;2023-09-18T05:38:33;100551.45;;;16.33;100.00
56681;BME280;42558;52.388;13.390;2023-09-18T05:41:03;100550.85;;;16.38;100.00
56681;BME280;42558;52.388;13.390;2023-09-18T05:43:35;100544.21;;;16.43;100.00
56681;BME280;42558;52.388;13.390;2023-09-18T05:46:05;100540.34;;;16.53;100.00
56681;BME280;42558;52.388;13.390;2023-09-18T05:48:35;100533.33;;;16.59;100.00
56681;BME280;42558;52.388;13.390;2023-09-18T05:51:05;100523.44;;;16.69;100.00
56681;BME280;42558;52.388;13.390;2023-09-18T05:53:35;100514.61;;;16.78;100.00
56681;BME280;42558;52.388;13.390;2023-09-18T05:56:05;100519.08;;;16.87;100.00
56681;BME280;42558;52.388;13.390;2023-09-18T05:58:35;100513.70;;;16.89;100.00
56681;BME280;42558;52.388;13.390;2023-09-18T06:01:06;100508.05;;;16.89;100.00
56681;BME280;42558;52.388;13.390;2023-09-18T06:03:37;100505.00;;;16.90;100.00
56681;BME280;42558;52.388;13.390;2023-09-18T06:06:07;100504.43;;;16.92;100.00
56681;BME280;42558;52.388;13.390;2023-09-18T06:08:38;100500.75;;;17.00;100.00
56681;BME280;42558;52.388;13.390;2023-09-18T06:11:08;100495.58;;;17.02;100.00
56681;BME280;42558;52.388;13.390;2023-09-18T06:13:38;100494.11;;;17.03;100.00
56681;BME280;42558;52.388;13.390;2023-09-18T06:16:08;100493.27;;;17.11;100.00
56681;BME280;42558;52.388;13.390;2023-09-18T06:18:38;100490.55;;;17.24;100.00
56681;BME280;42558;52.388;13.390;2023-09-18T06:21:08;100488.59;;;17.35;100.00
56681;BME280;42558;52.388;13.390;2023-09-18T06:23:36;100487.17;;;17.53;100.00
56681;BME280;42558;52.388;13.390;2023-09-18T06:26:05;100488.41;;;17.62;100.00
56681;BME280;42558;52.388;13.390;2023-09-18T06:28:33;100483.85;;;17.79;100.00
56681;BME280;42558;52.388;13.390;2023-09-18T06:31:02;100482.13;;;17.93;99.83
56681;BME280;42558;52.388;13.390;2023-09-18T06:33:30;100481.45;;;18.00;99.42
56681;BME280;42558;52.388;13.390;2023-09-18T06:35:59;100477.33;;;18.01;98.67
56681;BME280;42558;52.388;13.390;2023-09-18T06:38:27;100472.95;;;18.06;98.48
56681;BME280;42558;52.388;13.390;2023-09-18T06:40:55;100468.64;;;18.16;98.35
56681;BME280;42558;52.388;13.390;2023-09-18T06:43:24;100462.01;;;18.42;97.23
56681;BME280;42558;52.388;13.390;2023-09-18T06:45:52;100459.50;;;18.58;95.41
56681;BME280;42558;52.388;13.390;2023-09-18T06:48:21;100460.06;;;18.72;94.68
56681;BME280;42558;52.388;13.390;2023-09-18T06:50:49;100455.55;;;18.82;94.56
56681;BME280;42558;52.388;13.390;2023-09-18T06:53:17;100452.00;;;18.89;93.95
56681;BME280;42558;52.388;13.390;2023-09-18T06:55:46;100449.64;;;19.17;93.53
56681;BME280;42558;52.388;13.390;2023-09-18T06:58:14;100446.42;;;19.30;92.06
56681;BME280;42558;52.388;13.390;2023-09-18T07:00:43;100444.25;;;19.45;90.75
56681;BME280;42558;52.388;13.390;2023-09-18T07:03:11;100438.16;;;19.52;89.28
56681;BME280;42558;52.388;13.390;2023-09-18T07:05:40;100433.29;;;19.54;89.41
56681;BME280;42558;52.388;13.390;2023-09-18T07:08:08;100430.80;;;19.60;88.98
56681;BME280;42558;52.388;13.390;2023-09-18T07:10:39;100420.40;;;19.81;88.09
56681;BME280;42558;52.388;13.390;2023-09-18T07:13:08;100415.45;;;19.98;87.47
56681;BME280;42558;52.388;13.390;2023-09-18T07:15:36;100412.86;;;20.00;86.78
56681;BME280;42558;52.388;13.390;2023-09-18T07:18:05;100413.38;;;20.29;85.75
56681;BME280;42558;52.388;13.390;2023-09-18T07:20:33;100416.77;;;20.52;84.24
56681;BME280;42558;52.388;13.390;2023-09-18T07:23:01;100410.48;;;20.58;83.60
56681;BME280;42558;52.388;13.390;2023-09-18T07:25:30;100410.95;;;20.82;83.10
56681;BME280;42558;52.388;13.390;2023-09-18T07:27:58;100410.65;;;21.16;81.85
56681;BME280;42558;52.388;13.390;2023-09-18T07:30:27;100407.73;;;21.17;80.10
56681;BME280;42558;52.388;13.390;2023-09-18T07:32:55;100404.60;;;21.45;79.68
56681;BME280;42558;52.388;13.390;2023-09-18T07:35:28;100398.71;;;21.45;79.00
56681;BME280;42558;52.388;13.390;2023-09-18T07:37:58;100402.02;;;21.66;79.85
56681;BME280;42558;52.388;13.390;2023-09-18T07:40:28;100398.10;;;21.94;77.10
56681;BME280;42558;52.388;13.390;2023-09-18T07:42:58;100403.52;;;21.70;77.74
56681;BME280;42558;52.388;13.390;2023-09-18T07:45:28;100398.91;;;21.95;77.46
56681;BME280;42558;52.388;13.390;2023-09-18T07:47:57;100399.75;;;22.25;76.67
56681;BME280;42558;52.388;13.390;2023-09-18T07:50:27;100396.34;;;22.43;75.47
56681;BME280;42558;52.388;13.390;2023-09-18T07:52:58;100394.96;;;22.50;74.60
56681;BME280;42558;52.388;13.390;2023-09-18T07:55:28;100392.64;;;22.37;74.30
56681;BME280;42558;52.388;13.390;2023-09-18T07:57:59;100388.97;;;22.30;74.75
56681;BME280;42558;52.388;13.390;2023-09-18T08:00:29;100388.02;;;22.79;73.73
56681;BME280;42558;52.388;13.390;2023-09-18T08:03:00;100387.73;;;23.31;71.43
56681;BME280;42558;52.388;13.390;2023-09-18T08:05:33;100381.04;;;23.40;70.38
56681;BME280;42558;52.388;13.390;2023-09-18T08:08:03;100375.16;;;23.15;70.12
56681;BME280;42558;52.388;13.390;2023-09-18T08:10:37;100376.92;;;22.95;72.15
56681;BME280;42558;52.388;13.390;2023-09-18T08:13:07;100370.65;;;23.59;70.33
56681;BME280;42558;52.388;13.390;2023-09-18T08:15:37;100371.41;;;23.39;69.93
56681;BME280;42558;52.388;13.390;2023-09-18T08:18:08;100371.03;;;23.43;70.04
56681;BME280;42558;52.388;13.390;2023-09-18T08:20:44;100358.14;;;24.04;68.70
56681;BME280;42558;52.388;13.390;2023-09-18T08:23:15;100356.30;;;24.04;67.05
56681;BME280;42558;52.388;13.390;2023-09-18T08:25:45;100353.38;;;24.13;66.47
56681;BME280;42558;52.388;13.390;2023-09-18T08:28:13;100353.31;;;24.29;65.93
56681;BME280;42558;52.388;13.390;2023-09-18T08:30:44;100351.79;;;24.01;67.04
56681;BME280;42558;52.388;13.390;2023-09-18T08:33:16;100352.38;;;24.15;66.98
56681;BME280;42558;52.388;13.390;2023-09-18T08:35:44;100350.83;;;24.28;67.96
56681;BME280;42558;52.388;13.390;2023-09-18T08:38:16;100350.51;;;24.28;66.19
56681;BME280;42558;52.388;13.390;2023-09-18T08:40:47;100353.63;;;24.34;65.98
56681;BME280;42558;52.388;13.390;2023-09-18T08:43:18;100355.38;;;24.27;65.84
56681;BME280;42558;52.388;13.390;2023-09-18T08:45:55;100354.05;;;24.10;66.96
56681;BME280;42558;52.388;13.390;2023-09-18T08:48:32;100348.75;;;24.08;66.21
56681;BME280;42558;52.388;13.390;2023-09-18T08:51:06;100337.88;;;24.14;66.05
56681;BME280;42558;52.388;13.390;2023-09-18T08:53:37;100328.40;;;23.95;66.01
56681;BME280;42558;52.388;13.390;2023-09-18T08:56:07;100324.24;;;24.17;67.94
56681;BME280;42558;52.388;13.390;2023-09-18T08:58:38;100313.88;;;24.63;65.63
56681;BME280;42558;52.388;13.390;2023-09-18T09:01:11;100307.62;;;24.93;65.40
56681;BME280;42558;52.388;13.390;2023-09-18T09:03:42;100299.63;;;25.11;63.99
56681;BME280;42558;52.388;13.390;2023-09-18T09:06:14;100300.74;;;24.63;63.58
56681;BME280;42558;52.388;13.390;2023-09-18T09:08:44;100303.45;;;24.45;64.42
56681;BME280;42558;52.388;13.390;2023-09-18T09:11:14;100304.59;;;24.26;64.53
56681;BME280;42558;52.388;13.390;2023-09-18T09:13:44;100296.38;;;24.21;65.06
56681;BME280;42558;52.388;13.390;2023-09-18T09:16:17;100291.61;;;24.35;65.12
56681;BME280;42558;52.388;13.390;2023-09-18T09:18:50;100287.80;;;24.35;64.55
56681;BME280;42558;52.388;13.390;2023-09-18T09:21:20;100283.67;;;24.45;64.89
56681;BME280;42558;52.388;13.390;2023-09-18T09:23:53;100276.98;;;24.70;64.60
56681;BME280;42558;52.388;13.390;2023-09-18T09:26:22;100274.98;;;25.02;63.90
56681;BME280;42558;52.388;13.390;2023-09-18T09:28:51;100271.24;;;24.77;63.27
56681;BME280;42558;52.388;13.390;2023-09-18T09:31:30;100271.27;;;24.66;62.32
56681;BME280;42558;52.388;13.390;2023-09-18T09:34:00;100269.35;;;24.62;63.16
56681;BME280;42558;52.388;13.390;2023-09-18T09:36:34;100278.20;;;24.57;63.41
56681;BME280;42558;52.388;13.390;2023-09-18T09:39:05;100295.66;;;24.67;64.39
56681;BME280;42558;52.388;13.390;2023-09-18T09:41:33;100289.73;;;24.74;64.75
56681;BME280;42558;52.388;13.390;2023-09-18T09:44:05;100289.27;;;24.76;63.40
56681;BME280;42558;52.388;13.390;2023-09-18T09:46:34;100277.16;;;24.87;63.75
56681;BME280;42558;52.388;13.390;2023-09-18T09:49:05;100276.88;;;24.89;63.28
56681;BME280;42558;52.388;13.390;2023-09-18T09:51:35;100271.63;;;24.80;64.24
56681;BME280;42558;52.388;13.390;2023-09-18T09:54:04;100268.55;;;24.80;64.33
56681;BME280;42558;52.388;13.390;2023-09-18T09:56:47;100265.72;;;24.80;64.48
56681;BME280;42558;52.388;13.390;2023-09-18T09:59:20;100267.95;;;24.78;64.05
56681;BME280;42558;52.388;13.390;2023-09-18T10:01:51;100258.13;;;24.70;63.74
56681;BME280;42558;52.388;13.390;2023-09-18T10:04:19;100251.91;;;24.72;63.19
56681;BME280;42558;52.388;13.390;2023-09-18T10:07:07;100241.08;;;24.76;63.18
56681;BME280;42558;52.388;13.390;2023-09-18T10:09:41;100239.76;;;24.78;62.35
56681;BME280;42558;52.388;13.390;2023-09-18T10:12:15;100242.04;;;24.68;63.31
56681;BME280;42558;52.388;13.390;2023-09-18T10:14:53;100233.23;;;24.68;62.79
56681;BME280;42558;52.388;13.390;2023-09-18T10:17:33;100227.95;;;24.76;62.69
56681;BME280;42558;52.388;13.390;2023-09-18T10:20:12;100238.20;;;24.76;62.19
56681;BME280;42558;52.388;13.390;2023-09-18T10:22:54;100253.84;;;24.73;61.99
56681;BME280;42558;52.388;13.390;2023-09-18T10:25:29;100253.23;;;24.67;63.15
56681;BME280;42558;52.388;13.390;2023-09-18T10:28:02;100254.02;;;24.62;62.78
56681;BME280;42558;52.388;13.390;2023-09-18T10:30:32;100257.02;;;24.63;62.63
56681;BME280;42558;52.388;13.390;2023-09-18T10:33:04;100264.21;;;24.53;63.01
56681;BME280;42558;52.388;13.390;2023-09-18T10:35:38;100269.42;;;24.43;64.29
56681;BME280;42558;52.388;13.390;2023-09-18T10:38:10;100274.18;;;24.52;64.12
56681;BME280;42558;52.388;13.390;2023-09-18T10:40:43;100274.95;;;24.61;63.39
56681;BME280;42558;52.388;13.390;2023-09-18T10:43:16;100272.55;;;24.80;63.07
56681;BME280;42558;52.388;13.390;2023-09-18T10:45:47;100267.42;;;24.95;63.98
56681;BME280;42558;52.388;13.390;2023-09-18T10:48:22;100259.59;;;24.87;61.77
56681;BME280;42558;52.388;13.390;2023-09-18T10:50:53;100250.56;;;24.93;63.33
56681;BME280;42558;52.388;13.390;2023-09-18T10:53:26;100246.73;;;25.08;63.19
56681;BME280;42558;52.388;13.390;2023-09-18T10:55:55;100246.77;;;25.27;63.00
56681;BME280;42558;52.388;13.390;2023-09-18T10:58:26;100242.28;;;25.24;62.44
56681;BME280;42558;52.388;13.390;2023-09-18T11:00:59;100244.70;;;25.02;62.50
56681;BME280;42558;52.388;13.390;2023-09-18T11:03:33;100245.71;;;25.14;64.30
56681;BME280;42558;52.388;13.390;2023-09-18T11:06:21;100244.05;;;24.98;63.25
56681;BME280;42558;52.388;13.390;2023-09-18T11:09:07;100241.73;;;24.84;64.46
56681;BME280;42558;52.388;13.390;2023-09-18T11:11:38;100246.55;;;24.68;64.66
56681;BME280;42558;52.388;13.390;2023-09-18T11:14:11;100253.45;;;24.56;63.52
56681;BME280;42558;52.388;13.390;2023-09-18T11:16:41;100258.41;;;24.41;63.49
56681;BME280;42558;52.388;13.390;2023-09-18T11:19:12;100265.12;;;24.32;63.45
56681;BME280;42558;52.388;13.390;2023-09-18T11:21:47;100262.11;;;24.27;64.38
56681;BME280;42558;52.388;13.390;2023-09-18T11:24:21;100263.23;;;24.27;64.76
56681;BME280;42558;52.388;13.390;2023-09-18T11:26:51;100261.95;;;24.24;64.99
56681;BME280;42558;52.388;13.390;2023-09-18T11:29:23;100264.55;;;24.22;64.82
56681;BME280;42558;52.388;13.390;2023-09-18T11:31:56;100268.02;;;24.17;65.14
56681;BME280;42558;52.388;13.390;2023-09-18T11:34:35;100275.56;;;24.17;65.68
56681;BME280;42558;52.388;13.390;2023-09-18T11:37:22;100275.92;;;24.13;65.49
56681;BME280;42558;52.388;13.390;2023-09-18T11:39:52;100272.29;;;24.14;67.24
56681;BME280;42558;52.388;13.390;2023-09-18T11:42:22;100263.59;;;24.02;67.39
56681;BME280;42558;52.388;13.390;2023-09-18T11:44:55;100260.85;;;23.99;67.36
56681;BME280;42558;52.388;13.390;2023-09-18T11:47:26;100262.90;;;24.05;68.61
56681;BME280;42558;52.388;13.390;2023-09-18T11:49:59;100256.62;;;24.04;68.60
56681;BME280;42558;52.388;13.390;2023-09-18T11:52:30;100260.58;;;24.04;69.53
56681;BME280;42558;52.388;13.390;2023-09-18T11:55:00;100260.39;;;24.08;70.98
56681;BME280;42558;52.388;13.390;2023-09-18T11:57:35;100255.91;;;24.05;70.23
56681;BME280;42558;52.388;13.390;2023-09-18T12:00:19;100253.98;;;24.10;68.39
56681;BME280;42558;52.388;13.390;2023-09-18T12:02:51;100254.84;;;24.26;70.29
56681;BME280;42558;52.388;13.390;2023-09-18T12:05:21;100257.55;;;24.40;68.04
56681;BME280;42558;52.388;13.390;2023-09-18T12:07:54;100250.62;;;24.55;65.38
56681;BME280;42558;52.388;13.390;2023-09-18T12:10:26;100249.08;;;24.85;65.45
56681;BME280;42558;52.388;13.390;2023-09-18T12:12:56;100241.73;;;25.11;65.74
56681;BME280;42558;52.388;13.390;2023-09-18T12:15:26;100238.32;;;25.27;65.07
56681;BME280;42558;52.388;13.390;2023-09-18T12:17:56;100237.42;;;25.37;65.00
56681;BME280;42558;52.388;13.390;2023-09-18T12:20:26;100238.21;;;25.39;64.03
56681;BME280;42558;52.388;13.390;2023-09-18T12:22:56;100231.18;;;25.29;64.51
56681;BME280;42558;52.388;13.390;2023-09-18T12:25:26;100227.88;;;25.20;62.63
56681;BME280;42558;52.388;13.390;2023-09-18T12:27:56;100219.45;;;25.10;64.43
56681;BME280;42558;52.388;13.390;2023-09-18T12:30:24;100219.84;;;25.00;64.02
56681;BME280;42558;52.388;13.390;2023-09-18T12:32:53;100223.68;;;24.89;63.33
56681;BME280;42558;52.388;13.390;2023-09-18T12:35:27;100224.29;;;24.78;62.61
56681;BME280;42558;52.388;13.390;2023-09-18T12:38:00;100217.63;;;24.81;61.86
56681;BME280;42558;52.388;13.390;2023-09-18T12:40:31;100217.02;;;24.79;62.44
56681;BME280;42558;52.388;13.390;2023-09-18T12:43:04;100218.30;;;24.82;63.24
56681;BME280;42558;52.388;13.390;2023-09-18T12:45:35;100218.67;;;24.82;62.29
56681;BME280;42558;52.388;13.390;2023-09-18T12:48:06;100216.52;;;24.88;64.19
56681;BME280;42558;52.388;13.390;2023-09-18T12:50:34;100209.73;;;24.90;64.36
56681;BME280;42558;52.388;13.390;2023-09-18T12:53:15;100207.53;;;24.81;62.70
56681;BME280;42558;52.388;13.390;2023-09-18T12:55:44;100210.71;;;24.69;63.27
56681;BME280;42558;52.388;13.390;2023-09-18T12:58:19;100208.65;;;24.64;64.38